createdAt,value
2023-01-31T00:02:24.387Z,3.45
2023-01-31T00:04:52.423Z,3.45
2023-01-31T00:07:20.310Z,3.45
2023-01-31T00:09:48.199Z,3.45
2023-01-31T00:12:16.149Z,3.43
2023-01-31T00:14:44.174Z,3.41
2023-01-31T00:17:14.870Z,3.40
2023-01-31T00:19:42.662Z,3.40
2023-01-31T00:22:10.699Z,3.43
2023-01-31T00:24:39.044Z,3.44
2023-01-31T00:27:08.586Z,3.46
2023-01-31T00:29:36.435Z,3.48
2023-01-31T00:32:07.085Z,3.48
2023-01-31T00:34:34.956Z,3.47
2023-01-31T00:37:02.995Z,3.44
2023-01-31T00:39:30.965Z,3.43
2023-01-31T00:41:58.864Z,3.40
2023-01-31T00:44:26.617Z,3.36
2023-01-31T00:46:55.758Z,3.35
2023-01-31T00:49:24.122Z,3.36
2023-01-31T00:51:52.222Z,3.40
2023-01-31T00:54:20.048Z,3.42
2023-01-31T00:56:47.896Z,3.44
2023-01-31T00:59:15.709Z,3.44
2023-01-31T01:01:43.788Z,3.44
2023-01-31T01:04:11.577Z,3.42
2023-01-31T01:06:41.675Z,3.41
2023-01-31T01:09:09.585Z,3.38
2023-01-31T01:11:37.560Z,3.35
2023-01-31T01:14:05.252Z,3.32
2023-01-31T01:16:37.087Z,3.32
2023-01-31T01:19:07.176Z,3.35
2023-01-31T01:21:44.593Z,3.38
2023-01-31T01:24:18.381Z,3.40
2023-01-31T01:26:46.591Z,3.40
2023-01-31T01:29:14.573Z,3.39
2023-01-31T01:31:42.697Z,3.40
2023-01-31T01:34:15.590Z,3.39
2023-01-31T01:36:44.653Z,3.37
2023-01-31T01:39:13.479Z,3.35
2023-01-31T01:41:41.651Z,3.33
2023-01-31T01:44:44.759Z,3.31
2023-01-31T01:47:20.091Z,3.29
2023-01-31T01:49:51.794Z,3.28
2023-01-31T01:52:20.504Z,3.24
2023-01-31T01:54:56.820Z,3.23
2023-01-31T01:57:37.053Z,3.24
2023-01-31T02:00:11.043Z,3.28
2023-01-31T02:02:39.355Z,3.32
2023-01-31T02:05:08.804Z,3.35
2023-01-31T02:07:36.944Z,3.37
2023-01-31T02:10:04.790Z,3.37
2023-01-31T02:12:33.461Z,3.38
2023-01-31T02:15:01.422Z,3.37
2023-01-31T02:17:29.394Z,3.36
2023-01-31T02:20:24.251Z,3.33
2023-01-31T02:22:57.617Z,3.32
2023-01-31T02:25:34.374Z,3.28
2023-01-31T02:28:17.861Z,3.25
2023-01-31T02:31:00.903Z,3.22
2023-01-31T02:33:49.600Z,3.23
2023-01-31T02:36:53.177Z,3.26
2023-01-31T02:39:39.357Z,3.29
2023-01-31T02:42:41.243Z,3.30
2023-01-31T02:45:24.359Z,3.30
2023-01-31T02:48:04.984Z,3.29
2023-01-31T02:50:38.838Z,3.25
2023-01-31T02:53:12.036Z,3.24
2023-01-31T02:56:20.399Z,3.22
2023-01-31T02:59:22.124Z,3.20
2023-01-31T03:01:59.735Z,3.18
2023-01-31T03:04:32.124Z,3.14
2023-01-31T03:07:06.695Z,3.13
2023-01-31T03:09:50.710Z,3.10
2023-01-31T03:12:36.718Z,3.08
2023-01-31T03:15:51.881Z,3.09
2023-01-31T03:18:30.755Z,3.14
2023-01-31T03:21:17.335Z,3.15
2023-01-31T03:23:49.474Z,3.17
2023-01-31T03:26:20.441Z,3.19
2023-01-31T03:28:54.591Z,3.19
2023-01-31T03:31:39.797Z,3.19
2023-01-31T03:34:11.584Z,3.17
2023-01-31T03:36:47.258Z,3.16
2023-01-31T03:39:30.155Z,3.13
2023-01-31T03:42:10.160Z,3.12
2023-01-31T03:45:00.766Z,3.10
2023-01-31T03:47:36.435Z,3.07
2023-01-31T03:50:13.972Z,3.03
2023-01-31T03:52:55.451Z,3.02
2023-01-31T03:55:30.722Z,3.00
2023-01-31T03:58:03.033Z,2.97
2023-01-31T04:00:34.498Z,2.96
2023-01-31T04:03:12.777Z,2.93
2023-01-31T04:05:40.951Z,2.92
2023-01-31T04:08:08.876Z,2.91
2023-01-31T04:10:37.171Z,2.90
2023-01-31T04:13:05.307Z,2.89
2023-01-31T04:15:33.254Z,2.87
2023-01-31T04:18:01.135Z,2.86
2023-01-31T04:20:29.004Z,2.89
2023-01-31T04:22:56.820Z,2.93
2023-01-31T04:25:27.383Z,2.98
2023-01-31T04:27:55.332Z,3.02
2023-01-31T04:30:23.161Z,3.03
2023-01-31T04:32:51.247Z,3.05
2023-01-31T04:35:19.413Z,3.06
2023-01-31T04:37:47.439Z,3.06
2023-01-31T04:40:15.465Z,3.05
2023-01-31T04:42:43.447Z,3.04
2023-01-31T04:45:11.786Z,3.03
2023-01-31T04:47:39.511Z,3.02
2023-01-31T04:50:08.556Z,3.00
2023-01-31T04:52:37.237Z,2.98
2023-01-31T04:55:05.597Z,2.94
2023-01-31T04:57:33.863Z,2.93
2023-01-31T05:00:01.553Z,2.90
2023-01-31T05:02:31.782Z,2.88
2023-01-31T05:05:00.245Z,2.87
2023-01-31T05:07:28.066Z,2.84
2023-01-31T05:09:55.889Z,2.85
2023-01-31T05:12:23.855Z,2.87
2023-01-31T05:14:51.689Z,2.90
2023-01-31T05:17:26.221Z,2.91
2023-01-31T05:19:54.420Z,2.93
2023-01-31T05:22:22.819Z,2.96
2023-01-31T05:24:51.437Z,2.95
2023-01-31T05:27:20.164Z,2.95
2023-01-31T05:29:48.734Z,2.93
2023-01-31T05:32:17.813Z,2.91
2023-01-31T05:34:45.804Z,2.89
2023-01-31T05:37:13.646Z,2.86
2023-01-31T05:39:41.649Z,2.86
2023-01-31T05:42:09.467Z,2.83
2023-01-31T05:44:37.405Z,2.81
2023-01-31T05:47:06.042Z,2.78
2023-01-31T05:49:34.477Z,2.76
2023-01-31T05:52:03.160Z,2.74
2023-01-31T05:54:31.363Z,2.75
2023-01-31T05:56:59.423Z,2.79
2023-01-31T05:59:31.446Z,2.81
2023-01-31T06:02:00.124Z,2.87
2023-01-31T06:04:28.094Z,2.89
2023-01-31T06:06:55.921Z,2.91
2023-01-31T06:09:24.002Z,2.91
2023-01-31T06:11:52.074Z,2.90
2023-01-31T06:14:19.978Z,2.89
2023-01-31T06:16:47.911Z,2.88
2023-01-31T06:19:15.999Z,2.87
2023-01-31T06:21:43.835Z,2.86
2023-01-31T06:24:11.845Z,2.84
2023-01-31T06:26:39.808Z,2.80
2023-01-31T06:29:09.438Z,2.80
2023-01-31T06:31:37.532Z,2.79
2023-01-31T06:34:05.476Z,2.76
2023-01-31T06:36:34.261Z,2.75
2023-01-31T06:39:04.107Z,2.73
2023-01-31T06:41:32.077Z,2.72
2023-01-31T06:43:59.950Z,2.70
2023-01-31T06:46:27.858Z,2.68
2023-01-31T06:48:55.810Z,2.65
2023-01-31T06:51:23.921Z,2.66
2023-01-31T06:53:53.104Z,2.69
2023-01-31T06:56:21.201Z,2.75
2023-01-31T06:58:49.259Z,2.79
2023-01-31T07:01:17.280Z,2.82
2023-01-31T07:03:45.095Z,2.84
2023-01-31T07:06:13.957Z,2.84
2023-01-31T07:08:41.896Z,2.85
2023-01-31T07:11:12.484Z,2.84
2023-01-31T07:13:40.312Z,2.82
2023-01-31T07:16:10.269Z,2.80
2023-01-31T07:18:38.045Z,2.77
2023-01-31T07:21:06.534Z,2.76
2023-01-31T07:23:34.418Z,2.73
2023-01-31T07:26:06.019Z,2.69
2023-01-31T07:28:34.054Z,2.67
2023-01-31T07:31:11.045Z,2.64
2023-01-31T07:33:39.984Z,2.61
2023-01-31T07:36:10.322Z,2.57
2023-01-31T07:38:38.448Z,2.58
2023-01-31T07:41:06.252Z,2.59
2023-01-31T07:43:34.525Z,2.64
2023-01-31T07:46:02.751Z,2.68
2023-01-31T07:48:30.685Z,2.71
2023-01-31T07:51:00.725Z,2.72
2023-01-31T07:53:31.809Z,2.74
2023-01-31T07:56:14.755Z,2.75
2023-01-31T07:58:43.922Z,2.74
2023-01-31T08:01:41.618Z,2.73
2023-01-31T08:04:21.089Z,2.72
2023-01-31T08:06:53.733Z,2.73
2023-01-31T08:09:22.215Z,2.72
2023-01-31T08:11:50.801Z,2.70
2023-01-31T08:14:20.886Z,2.70
2023-01-31T08:16:48.841Z,2.73
2023-01-31T08:19:16.730Z,2.74
2023-01-31T08:21:44.859Z,2.74
2023-01-31T08:24:12.803Z,2.76
2023-01-31T08:26:43.192Z,2.80
2023-01-31T08:29:11.212Z,2.86
2023-01-31T08:31:40.947Z,2.92
2023-01-31T08:34:08.948Z,2.96
2023-01-31T08:36:38.503Z,3.00
2023-01-31T08:39:06.916Z,3.02
2023-01-31T08:41:37.008Z,3.03
2023-01-31T08:44:07.969Z,3.04
2023-01-31T08:46:37.543Z,3.02
2023-01-31T08:49:07.190Z,3.03
2023-01-31T08:51:35.176Z,3.03
2023-01-31T08:54:03.047Z,3.01
2023-01-31T08:56:31.319Z,3.00
2023-01-31T08:59:02.106Z,3.00
2023-01-31T09:01:30.596Z,2.99
2023-01-31T09:04:00.971Z,2.99
2023-01-31T09:06:30.188Z,3.01
2023-01-31T09:08:58.886Z,3.08
2023-01-31T09:11:30.655Z,3.17
2023-01-31T09:13:59.715Z,3.26
2023-01-31T09:16:30.008Z,3.35
2023-01-31T09:18:58.464Z,3.43
2023-01-31T09:21:26.282Z,3.53
2023-01-31T09:23:59.906Z,3.86
2023-01-31T09:26:28.372Z,4.45
2023-01-31T09:28:57.919Z,4.41
2023-01-31T09:31:55.984Z,4.24
2023-01-31T09:34:24.231Z,4.13
2023-01-31T09:36:54.268Z,4.06
2023-01-31T09:39:22.299Z,3.99
2023-01-31T09:42:37.827Z,3.93
2023-01-31T09:45:15.693Z,3.86
2023-01-31T09:47:47.600Z,3.80
2023-01-31T09:53:36.402Z,3.71
2023-01-31T09:56:43.845Z,3.65
2023-01-31T10:00:10.360Z,3.60
2023-01-31T10:03:35.964Z,3.58
2023-01-31T10:09:58.005Z,3.68
2023-01-31T10:12:58.155Z,3.71
2023-01-31T10:18:32.834Z,3.73
2023-01-31T10:21:12.975Z,3.73
2023-01-31T10:26:56.706Z,3.71
2023-01-31T10:30:08.600Z,3.72
2023-01-31T10:32:52.058Z,3.69
2023-01-31T10:35:26.357Z,3.67
2023-01-31T10:38:50.620Z,3.64
2023-01-31T10:41:31.529Z,3.68
2023-01-31T10:47:17.857Z,3.74
2023-01-31T10:49:51.416Z,3.75
2023-01-31T10:52:33.446Z,3.75
2023-01-31T10:55:31.400Z,3.76
2023-01-31T10:58:09.833Z,3.75
2023-01-31T11:01:15.255Z,3.75
2023-01-31T11:06:49.851Z,3.75
2023-01-31T11:09:17.965Z,3.74
2023-01-31T11:12:00.707Z,3.77
2023-01-31T11:14:32.178Z,3.83
2023-01-31T11:17:03.249Z,3.87
2023-01-31T11:19:41.033Z,3.93
2023-01-31T11:22:16.493Z,3.95
2023-01-31T11:24:47.804Z,3.96
2023-01-31T11:27:25.824Z,3.95
2023-01-31T11:29:56.134Z,3.95
2023-01-31T11:32:27.929Z,3.93
2023-01-31T11:35:01.827Z,3.92
2023-01-31T11:37:32.117Z,3.91
2023-01-31T11:40:37.295Z,3.90
2023-01-31T11:43:11.108Z,3.89
2023-01-31T11:45:42.509Z,3.91
2023-01-31T11:48:25.514Z,3.94
2023-01-31T11:51:00.935Z,3.97
2023-01-31T11:53:42.706Z,3.99
2023-01-31T11:56:29.142Z,4.02
2023-01-31T11:59:08.593Z,4.01
2023-01-31T12:01:47.211Z,4.00
2023-01-31T12:04:25.874Z,3.97
2023-01-31T12:07:24.322Z,3.93
2023-01-31T12:09:56.081Z,3.87
2023-01-31T12:15:49.747Z,3.86
2023-01-31T12:18:43.627Z,3.85
2023-01-31T12:21:42.878Z,3.88
2023-01-31T12:24:40.984Z,3.91
2023-01-31T12:27:31.374Z,3.91
2023-01-31T12:30:24.682Z,3.90
2023-01-31T12:33:05.750Z,3.89
2023-01-31T12:35:39.941Z,3.87
2023-01-31T12:38:14.130Z,3.86
2023-01-31T12:41:10.958Z,3.87
2023-01-31T12:43:47.632Z,3.92
2023-01-31T12:46:26.161Z,3.94
2023-01-31T12:49:03.407Z,3.96
2023-01-31T12:51:41.949Z,3.97
2023-01-31T12:54:27.599Z,3.94
2023-01-31T12:57:10.746Z,3.92
2023-01-31T12:59:53.032Z,3.90
2023-01-31T13:02:34.014Z,3.87
2023-01-31T13:05:10.036Z,3.84
2023-01-31T13:07:38.193Z,3.84
2023-01-31T13:10:36.411Z,3.85
2023-01-31T13:13:07.374Z,3.86
2023-01-31T13:15:48.145Z,3.86
2023-01-31T13:18:16.872Z,3.85
2023-01-31T13:21:07.556Z,3.82
2023-01-31T13:23:42.457Z,3.80
2023-01-31T13:26:21.971Z,3.78
2023-01-31T13:29:00.882Z,3.76
2023-01-31T13:31:32.347Z,3.76
2023-01-31T13:34:16.487Z,3.80
2023-01-31T13:36:49.010Z,3.82
2023-01-31T13:39:24.340Z,3.83
2023-01-31T13:41:52.320Z,3.84
2023-01-31T13:44:21.227Z,3.83
2023-01-31T13:47:04.621Z,3.81
2023-01-31T13:49:38.946Z,3.79
2023-01-31T13:52:15.784Z,3.77
2023-01-31T13:55:06.246Z,3.74
2023-01-31T13:57:46.930Z,3.75
2023-01-31T14:00:36.247Z,3.77
2023-01-31T14:03:06.885Z,3.79
2023-01-31T14:05:50.640Z,3.81
2023-01-31T14:08:27.695Z,3.83
2023-01-31T14:11:00.476Z,3.83
2023-01-31T14:13:38.789Z,3.82
2023-01-31T14:16:46.330Z,3.80
2023-01-31T14:19:22.042Z,3.79
2023-01-31T14:21:54.232Z,3.75
2023-01-31T14:24:53.651Z,3.74
2023-01-31T14:27:51.270Z,3.75
2023-01-31T14:30:38.280Z,3.78
2023-01-31T14:33:12.361Z,3.78
2023-01-31T14:35:50.717Z,3.78
2023-01-31T14:38:31.441Z,3.79
2023-01-31T14:41:17.447Z,3.78
2023-01-31T14:44:16.955Z,3.76
2023-01-31T14:46:45.868Z,3.72
2023-01-31T14:49:32.597Z,3.71
2023-01-31T14:52:13.692Z,3.73
2023-01-31T14:54:51.900Z,3.75
2023-01-31T14:57:25.174Z,3.77
2023-01-31T14:59:55.629Z,3.78
2023-01-31T15:02:34.159Z,3.77
2023-01-31T15:05:37.852Z,3.74
2023-01-31T15:08:14.793Z,3.71
2023-01-31T15:11:02.905Z,3.70
2023-01-31T15:13:44.824Z,3.70
2023-01-31T15:16:34.934Z,3.70
2023-01-31T15:19:13.244Z,3.70
2023-01-31T15:21:50.689Z,3.70
2023-01-31T15:24:32.095Z,3.68
2023-01-31T15:27:02.175Z,3.64
2023-01-31T15:29:40.873Z,3.63
2023-01-31T15:32:22.444Z,3.61
2023-01-31T15:35:14.976Z,3.62
2023-01-31T15:37:43.078Z,3.63
2023-01-31T15:40:11.114Z,3.64
2023-01-31T15:42:38.963Z,3.63
2023-01-31T15:45:13.173Z,3.60
2023-01-31T15:47:41.122Z,3.58
2023-01-31T15:50:16.553Z,3.56
2023-01-31T15:52:44.564Z,3.55
2023-01-31T15:55:16.897Z,3.56
2023-01-31T15:57:56.954Z,3.58
2023-01-31T16:00:32.688Z,3.58
2023-01-31T16:03:01.240Z,3.59
2023-01-31T16:05:36.488Z,3.59
2023-01-31T16:08:25.682Z,3.57
2023-01-31T16:10:53.966Z,3.55
2023-01-31T16:13:22.416Z,3.55
2023-01-31T16:15:50.926Z,3.58
2023-01-31T16:18:19.149Z,3.61
2023-01-31T16:20:49.207Z,3.64
2023-01-31T16:23:26.253Z,3.67
2023-01-31T16:26:06.405Z,3.67
2023-01-31T16:28:43.037Z,3.66
2023-01-31T16:31:17.354Z,3.65
2023-01-31T16:33:57.772Z,3.67
2023-01-31T16:36:33.820Z,3.72
2023-01-31T16:39:05.376Z,3.75
2023-01-31T16:41:47.104Z,3.76
2023-01-31T16:44:18.869Z,3.76
2023-01-31T16:46:48.820Z,3.76
2023-01-31T16:49:28.636Z,3.74
2023-01-31T16:52:16.543Z,3.72
2023-01-31T16:54:51.398Z,3.69
2023-01-31T16:57:38.423Z,3.71
2023-01-31T17:00:29.078Z,3.73
2023-01-31T17:03:00.781Z,3.76
2023-01-31T17:05:41.507Z,3.78
2023-01-31T17:08:17.520Z,3.77
2023-01-31T17:10:47.976Z,3.75
2023-01-31T17:13:20.419Z,3.73
2023-01-31T17:15:49.559Z,3.71
2023-01-31T17:18:18.578Z,3.69
2023-01-31T17:20:51.115Z,3.71
2023-01-31T17:23:19.318Z,3.72
2023-01-31T17:25:47.359Z,3.75
2023-01-31T17:28:15.877Z,3.76
2023-01-31T17:30:45.378Z,3.77
2023-01-31T17:33:15.484Z,3.75
2023-01-31T17:35:47.338Z,3.73
2023-01-31T17:38:15.829Z,3.72
2023-01-31T17:40:44.733Z,3.72
2023-01-31T17:43:19.035Z,3.75
2023-01-31T17:45:46.830Z,3.77
2023-01-31T17:48:25.702Z,3.77
2023-01-31T17:50:54.824Z,3.78
2023-01-31T17:53:22.839Z,3.76
2023-01-31T17:55:50.677Z,3.73
2023-01-31T17:58:18.700Z,3.71
2023-01-31T18:00:47.048Z,3.69
2023-01-31T18:03:22.767Z,3.68
2023-01-31T18:05:51.247Z,3.69
2023-01-31T18:08:19.656Z,3.72
2023-01-31T18:10:47.671Z,3.74
2023-01-31T18:13:15.581Z,3.75
2023-01-31T18:15:43.678Z,3.75
2023-01-31T18:18:12.093Z,3.74
2023-01-31T18:20:47.467Z,3.72
2023-01-31T18:23:15.775Z,3.69
2023-01-31T18:25:44.340Z,3.69
2023-01-31T18:28:12.384Z,3.72
2023-01-31T18:30:40.565Z,3.75
2023-01-31T18:33:08.682Z,3.77
2023-01-31T18:35:38.753Z,3.78
2023-01-31T18:38:06.860Z,3.77
2023-01-31T18:40:34.785Z,3.76
2023-01-31T18:43:02.666Z,3.75
2023-01-31T18:45:30.607Z,3.73
2023-01-31T18:47:58.564Z,3.73
2023-01-31T18:50:26.337Z,3.77
2023-01-31T18:52:54.465Z,3.79
2023-01-31T18:55:22.830Z,3.81
2023-01-31T18:57:51.032Z,3.83
2023-01-31T19:00:19.893Z,3.83
2023-01-31T19:02:51.988Z,3.82
2023-01-31T19:05:24.068Z,3.81
2023-01-31T19:07:51.998Z,3.79
2023-01-31T19:10:19.949Z,3.79
2023-01-31T19:12:48.465Z,3.80
2023-01-31T19:15:16.481Z,3.84
2023-01-31T19:17:46.253Z,3.87
2023-01-31T19:20:14.117Z,3.87
2023-01-31T19:22:42.122Z,3.88
2023-01-31T19:25:11.140Z,3.87
2023-01-31T19:27:40.099Z,3.86
2023-01-31T19:30:09.157Z,3.84
2023-01-31T19:32:37.038Z,3.83
2023-01-31T19:35:05.327Z,3.84
2023-01-31T19:37:33.317Z,3.87
2023-01-31T19:40:02.184Z,3.90
2023-01-31T19:42:30.787Z,3.92
2023-01-31T19:44:58.613Z,3.93
2023-01-31T19:47:26.572Z,3.95
2023-01-31T19:49:54.523Z,3.96
2023-01-31T19:52:22.490Z,3.95
2023-01-31T19:54:50.421Z,3.94
2023-01-31T19:57:18.968Z,3.95
2023-01-31T19:59:46.991Z,3.99
2023-01-31T20:02:14.978Z,4.02
2023-01-31T20:04:43.045Z,4.03
2023-01-31T20:07:11.153Z,4.06
2023-01-31T20:09:39.240Z,4.06
2023-01-31T20:12:07.234Z,4.05
2023-01-31T20:14:36.126Z,4.03
2023-01-31T20:17:04.109Z,4.01
2023-01-31T20:19:32.170Z,4.01
2023-01-31T20:22:00.342Z,4.04
2023-01-31T20:24:28.165Z,4.06
2023-01-31T20:26:56.219Z,4.09
2023-01-31T20:29:24.217Z,4.09
2023-01-31T20:31:52.288Z,4.09
2023-01-31T20:34:20.596Z,4.08
2023-01-31T20:36:49.198Z,4.07
2023-01-31T20:39:17.569Z,4.05
2023-01-31T20:41:46.617Z,4.06
2023-01-31T20:44:16.984Z,4.07
2023-01-31T20:46:45.011Z,4.11
2023-01-31T20:49:12.960Z,4.13
2023-01-31T20:51:41.004Z,4.14
2023-01-31T20:54:09.013Z,4.16
2023-01-31T20:56:37.003Z,4.16
2023-01-31T20:59:04.851Z,4.15
2023-01-31T21:01:32.934Z,4.14
2023-01-31T21:04:00.871Z,4.15
2023-01-31T21:06:29.201Z,4.19
2023-01-31T21:08:57.368Z,4.22
2023-01-31T21:11:25.287Z,4.24
2023-01-31T21:13:53.095Z,4.26
2023-01-31T21:16:21.741Z,4.27
2023-01-31T21:18:49.861Z,4.27
2023-01-31T21:21:23.564Z,4.25
2023-01-31T21:23:57.025Z,4.23
2023-01-31T21:26:26.916Z,4.24
2023-01-31T21:28:55.219Z,4.25
2023-01-31T21:31:23.244Z,4.30
2023-01-31T21:33:52.597Z,4.31
2023-01-31T21:36:25.532Z,4.33
2023-01-31T21:38:53.623Z,4.32
2023-01-31T21:41:40.734Z,4.30
2023-01-31T21:44:09.076Z,4.28
2023-01-31T21:46:37.022Z,4.26
2023-01-31T21:49:05.156Z,4.21
2023-01-31T21:51:33.152Z,4.30
2023-01-31T21:54:01.000Z,4.34
2023-01-31T21:56:30.968Z,4.36
2023-01-31T21:58:59.041Z,4.38
2023-01-31T22:01:29.812Z,4.38
2023-01-31T22:03:58.905Z,4.38
2023-01-31T22:06:31.633Z,4.36
2023-01-31T22:09:00.447Z,4.34
2023-01-31T22:11:33.353Z,4.35
2023-01-31T22:14:05.448Z,4.36
2023-01-31T22:16:33.390Z,4.38
2023-01-31T22:19:01.525Z,4.39
2023-01-31T22:21:31.983Z,4.40
2023-01-31T22:24:01.327Z,4.40
2023-01-31T22:26:34.834Z,4.40
2023-01-31T22:29:05.377Z,4.38
2023-01-31T22:31:34.210Z,4.38
2023-01-31T22:34:03.797Z,4.37
2023-01-31T22:36:32.864Z,4.38
2023-01-31T22:39:01.185Z,4.42
2023-01-31T22:41:29.263Z,4.45
2023-01-31T22:43:57.104Z,4.49
2023-01-31T22:46:28.028Z,4.51
2023-01-31T22:48:56.471Z,4.53
2023-01-31T22:51:26.495Z,4.53
2023-01-31T22:53:55.693Z,4.53
2023-01-31T22:56:29.187Z,4.53
2023-01-31T22:58:58.552Z,4.47
2023-01-31T23:01:32.652Z,4.30
2023-01-31T23:04:05.407Z,4.11
2023-01-31T23:06:34.531Z,3.93
2023-01-31T23:09:02.697Z,3.75
2023-01-31T23:11:30.561Z,3.60
2023-01-31T23:13:58.846Z,3.47
2023-01-31T23:16:47.102Z,3.35
2023-01-31T23:19:16.124Z,3.23
2023-01-31T23:21:44.779Z,3.18
2023-01-31T23:24:19.094Z,3.14
2023-01-31T23:26:47.221Z,3.07
2023-01-31T23:29:15.142Z,3.03
2023-01-31T23:31:43.447Z,2.99
2023-01-31T23:34:11.659Z,2.99
2023-01-31T23:36:39.731Z,2.96
2023-01-31T23:39:07.784Z,2.95
2023-01-31T23:41:35.818Z,2.96
2023-01-31T23:44:03.948Z,2.98
2023-01-31T23:46:31.995Z,2.99
2023-01-31T23:49:02.137Z,2.99
2023-01-31T23:51:31.405Z,2.97
2023-01-31T23:53:59.864Z,2.96
2023-01-31T23:56:27.902Z,2.94
2023-01-31T23:58:56.114Z,2.90
